Milwaukee, Wisconsin
Traffic Map
Current Weather Conditions
Milwaukee, Wisconsin
Broken Clouds
Broken Clouds
54°
Feels Like: 54°
Wind Chill: 54° Ceiling: 23000
Heat Index: 54° Visibility: 10mi
Dew Point: 42° Wind: 8mph
Humidity: 64% Direction: 180° (S)
Pressure: 30.17in Gusts: 0mph
Raw Report DataKMKE 231552Z 18007KT 10SM BKN230 12/06 A3017 RMK AO2 SLP222 T01220056
Traffic Incident Summary
Active as of:
Severity:
Category:
InformationThere was an issue retrieving the traffic information for this location. Please try a different location or try again shortly.
Advertisements
Track Severe Weather on mobile